Aeroporto :
LOGIN :

Iscrizione | Disclaimer

   EN    FR    IT 

 










Sommario :    VFR   VFR Marginale   IFR   IFR Intensivo   IFR Molto Intensivo
Visibilità : 
Base nubi : 
>= 8 km
>= 3000ft
5 / 8 km
1000 / 3000 ft
1500m / 5 km
500 / 1000 ft
800 / 1500m
200 / 500 ft
< 800m
< 200 ft
Simboli :   Temporali  Nebbia  Neve Forte  Precipitazioni Forti  Vento > 20 kt
SIGMETs :   Varie  Temporali  Ghiacco  Turbolenza  Onda orograficha  Ceneri Vulcaniche






- Altitudine del aeroporto : 287 ft


LFRL - Lanveoc Poulmic

ULTIMO METAR :
  • 222230Z AUTO 06005KT 7000 -RA OVC006 09/08 Q0980

METARs OBSOLETI :
  • 222200Z AUTO 07006KT 030V090 9999 -RA OVC007 09/08 Q0980
  • 222130Z AUTO 07006KT 9999 -RA OVC008/// ///TCU 09/08 Q0980
  • 222100Z AUTO 07007KT 040V100 9999 -RA BKN009/// OVC020/// ///TCU 09/08 Q0980
  • 222030Z AUTO 09010KT 050V120 9999 -DZ BKN009 BKN015 BKN032 09/08 Q0980
  • 222000Z AUTO 09010KT 9999 BKN008 OVC025 09/08 Q0980

TAF TAF LFRL
Valido dal 22 a 12 ore il 23 a 12 ore UTC


221100Z 2212/2312 12015G25KT 9999 RA BKN014 OVC040
TEMPO 2214/2221 3000 RA BKN004 BKN009CB
BECMG 2221/2224 14005KT NSW BKN004
TEMPO 2300/2306 2000 SHRA BR BKN004 BKN009TCU
BECMG 2306/2308 31010KT BKN020TCU



MetMap, La meteo Aeronautica in un colpo d'occhio ! - Copyright ORBIFLY Dicembre 2007 - Disclaimer

ORBIFLY MET'MAP TEAM :

Programmazione e sviluppo : Alexandra Zaïnal
Concezione e sviluppo : Baudouin d'Aumeries
Co-Programmazione e sviluppo : Marc-Olivier Méhu
Supporto tecnico e logistico : Manuel Goepfert
Aiuto per la traduzione : Arnaldo La Scala

Contatto : metmap@orbifly.com




FONTI E CREDITI :

   NOAA